createdAt,value
2017-12-15T00:01:46.557Z,94453.77
2017-12-15T00:04:13.994Z,94454.34
2017-12-15T00:06:41.397Z,94463.58
2017-12-15T00:09:08.825Z,94456.44
2017-12-15T00:11:37.054Z,94458.38
2017-12-15T00:14:04.488Z,94456.52
2017-12-15T00:16:31.903Z,94451.64
2017-12-15T00:18:59.348Z,94456.52
2017-12-15T00:21:26.731Z,94455.09
2017-12-15T00:23:54.259Z,94458.78
2017-12-15T00:26:21.666Z,94466.06
2017-12-15T00:28:49.140Z,94460.55
2017-12-15T00:31:16.525Z,94455.52
2017-12-15T00:33:43.902Z,94449.47
2017-12-15T00:36:11.310Z,94434.02
2017-12-15T00:38:38.679Z,94426.09
2017-12-15T00:41:06.131Z,94431.95
2017-12-15T00:43:33.568Z,94437.45
2017-12-15T00:46:00.937Z,94433.64
2017-12-15T00:48:28.375Z,94440.69
2017-12-15T00:50:55.757Z,94447.70
2017-12-15T00:53:23.174Z,94450.19
2017-12-15T00:55:50.555Z,94445.06
2017-12-15T00:58:17.982Z,94438.30
2017-12-15T01:00:45.362Z,94430.76
2017-12-15T01:03:13.404Z,94438.53
2017-12-15T01:05:40.831Z,94439.91
2017-12-15T01:08:08.212Z,94445.34
2017-12-15T01:10:35.703Z,94453.67
2017-12-15T01:13:03.189Z,94460.69
2017-12-15T01:15:30.601Z,94461.48
2017-12-15T01:17:57.999Z,94465.98
2017-12-15T01:20:25.434Z,94457.73
2017-12-15T01:22:52.824Z,94458.12
2017-12-15T01:25:20.288Z,94466.77
2017-12-15T01:27:47.654Z,94474.56
2017-12-15T01:30:15.133Z,94496.16
2017-12-15T01:32:42.545Z,94492.94
2017-12-15T01:35:09.960Z,94479.89
2017-12-15T01:37:37.382Z,94487.67
2017-12-15T01:40:04.755Z,94490.34
2017-12-15T01:42:32.169Z,94483.53
2017-12-15T01:44:59.646Z,94461.70
2017-12-15T01:47:27.120Z,94477.35
2017-12-15T01:49:54.667Z,94478.11
2017-12-15T01:52:22.071Z,94462.13
2017-12-15T01:54:49.506Z,94457.76
2017-12-15T01:57:16.894Z,94467.23
2017-12-15T01:59:44.280Z,94460.78
2017-12-15T02:02:11.812Z,94457.50
2017-12-15T02:04:39.198Z,94462.99
2017-12-15T02:07:06.689Z,94454.66
2017-12-15T02:09:34.664Z,94452.28
2017-12-15T02:12:02.028Z,94451.39
2017-12-15T02:14:29.437Z,94451.63
2017-12-15T02:16:56.954Z,94452.55
2017-12-15T02:19:24.391Z,94443.31
2017-12-15T02:21:51.817Z,94451.39
2017-12-15T02:24:19.283Z,94447.02
2017-12-15T02:26:46.685Z,94446.84
2017-12-15T02:29:14.118Z,94456.65
2017-12-15T02:31:41.523Z,94455.27
2017-12-15T02:34:08.900Z,94462.77
2017-12-15T02:36:36.304Z,94466.56
2017-12-15T02:39:03.699Z,94463.28
2017-12-15T02:41:31.939Z,94463.82
2017-12-15T02:43:59.310Z,94456.43
2017-12-15T02:46:26.810Z,94460.00
2017-12-15T02:48:54.222Z,94467.03
2017-12-15T02:51:21.664Z,94472.58
2017-12-15T02:53:49.103Z,94469.22
2017-12-15T02:56:16.506Z,94466.75
2017-12-15T02:58:43.933Z,94460.66
2017-12-15T03:01:11.336Z,94460.89
2017-12-15T03:03:38.693Z,94462.80
2017-12-15T03:06:06.161Z,94468.20
2017-12-15T03:08:33.533Z,94471.95
2017-12-15T03:11:00.926Z,94467.17
2017-12-15T03:13:28.317Z,94473.50
2017-12-15T03:15:55.738Z,94490.52
2017-12-15T03:18:23.711Z,94489.13
2017-12-15T03:20:51.126Z,94457.97
2017-12-15T03:23:18.544Z,94455.88
2017-12-15T03:25:45.979Z,94462.36
2017-12-15T03:28:13.358Z,94469.63
2017-12-15T03:30:40.729Z,94474.47
2017-12-15T03:33:08.163Z,94478.15
2017-12-15T03:35:35.644Z,94475.65
2017-12-15T03:38:03.040Z,94457.51
2017-12-15T03:40:30.435Z,94463.74
2017-12-15T03:42:57.836Z,94471.73
2017-12-15T03:45:25.250Z,94469.83
2017-12-15T03:47:52.695Z,94461.14
2017-12-15T03:50:20.119Z,94463.05
2017-12-15T03:52:47.538Z,94461.64
2017-12-15T03:55:15.016Z,94465.03
2017-12-15T03:57:42.381Z,94470.70
2017-12-15T04:00:09.815Z,94474.84
2017-12-15T04:02:37.229Z,94463.49
2017-12-15T04:05:04.638Z,94475.52
2017-12-15T04:07:32.028Z,94488.01
2017-12-15T04:09:59.506Z,94472.08
2017-12-15T04:12:26.942Z,94471.28
2017-12-15T04:14:54.501Z,94484.12
2017-12-15T04:17:21.955Z,94494.55
2017-12-15T04:19:49.402Z,94498.13
2017-12-15T04:22:16.864Z,94498.30
2017-12-15T04:24:44.439Z,94504.41
2017-12-15T04:27:17.683Z,94512.35
2017-12-15T04:29:45.122Z,94514.89
2017-12-15T04:32:12.594Z,94500.52
2017-12-15T04:34:40.001Z,94495.12
2017-12-15T04:37:07.395Z,94505.53
2017-12-15T04:39:34.974Z,94505.15
2017-12-15T04:42:02.391Z,94517.33
2017-12-15T04:44:29.849Z,94503.97
2017-12-15T04:46:57.243Z,94501.30
2017-12-15T04:49:24.657Z,94514.88
2017-12-15T04:51:52.105Z,94517.76
2017-12-15T04:54:19.708Z,94515.61
2017-12-15T04:56:47.102Z,94510.05
2017-12-15T04:59:14.566Z,94518.06
2017-12-15T05:01:41.998Z,94513.58
2017-12-15T05:04:09.389Z,94506.91
2017-12-15T05:06:36.834Z,94507.89
2017-12-15T05:09:04.310Z,94513.73
2017-12-15T05:11:31.762Z,94516.22
2017-12-15T05:13:59.195Z,94526.13
2017-12-15T05:16:26.703Z,94540.49
2017-12-15T05:18:54.313Z,94539.83
2017-12-15T05:21:21.790Z,94547.45
2017-12-15T05:23:49.234Z,94546.91
2017-12-15T05:26:16.664Z,94541.65
2017-12-15T05:28:44.120Z,94544.72
2017-12-15T05:31:11.683Z,94544.66
2017-12-15T05:33:39.200Z,94536.09
2017-12-15T05:36:06.677Z,94530.63
2017-12-15T05:38:34.110Z,94530.38
2017-12-15T05:41:01.539Z,94519.57
2017-12-15T05:43:28.942Z,94519.67
2017-12-15T05:45:56.311Z,94518.05
2017-12-15T05:48:23.947Z,94511.83
2017-12-15T05:50:51.379Z,94504.75
2017-12-15T05:53:18.867Z,94513.11
2017-12-15T05:55:46.260Z,94512.07
2017-12-15T05:58:13.742Z,94508.78
2017-12-15T06:00:41.275Z,94505.86
2017-12-15T06:03:08.688Z,94504.38
2017-12-15T06:05:36.117Z,94506.59
2017-12-15T06:08:03.558Z,94511.47
2017-12-15T06:10:30.971Z,94508.08
2017-12-15T06:12:58.422Z,94505.19
2017-12-15T06:15:25.904Z,94515.13
2017-12-15T06:17:53.355Z,94514.70
2017-12-15T06:20:20.791Z,94525.42
2017-12-15T06:22:48.186Z,94525.52
2017-12-15T06:25:15.673Z,94525.54
2017-12-15T06:27:43.114Z,94518.02
2017-12-15T06:30:10.545Z,94532.98
2017-12-15T06:32:38.247Z,94534.61
2017-12-15T06:35:05.764Z,94526.16
2017-12-15T06:37:33.223Z,94540.97
2017-12-15T06:40:00.612Z,94542.40
2017-12-15T06:42:28.182Z,94533.56
2017-12-15T06:44:55.714Z,94534.33
2017-12-15T06:47:23.196Z,94531.02
2017-12-15T06:49:50.920Z,94545.61
2017-12-15T06:52:18.436Z,94543.19
2017-12-15T06:54:45.943Z,94541.40
2017-12-15T06:57:14.642Z,94548.38
2017-12-15T06:59:42.758Z,94548.52
2017-12-15T07:02:10.176Z,94559.13
2017-12-15T07:04:37.728Z,94560.34
2017-12-15T07:07:05.162Z,94544.82
2017-12-15T07:09:32.780Z,94537.94
2017-12-15T07:12:00.336Z,94545.47
2017-12-15T07:14:27.878Z,94541.89
2017-12-15T07:16:55.409Z,94534.25
2017-12-15T07:19:22.856Z,94540.14
2017-12-15T07:21:50.343Z,94542.41
2017-12-15T07:24:18.048Z,94537.13
2017-12-15T07:26:45.672Z,94533.22
2017-12-15T07:29:13.394Z,94534.00
2017-12-15T07:31:40.951Z,94545.69
2017-12-15T07:34:08.354Z,94541.05
2017-12-15T07:36:35.842Z,94532.10
2017-12-15T07:39:03.361Z,94529.37
2017-12-15T07:41:30.774Z,94529.28
2017-12-15T07:43:58.269Z,94523.33
2017-12-15T07:46:25.780Z,94524.05
2017-12-15T07:48:53.188Z,94521.79
2017-12-15T07:51:23.892Z,94519.47
2017-12-15T07:53:51.614Z,94533.48
2017-12-15T07:56:19.059Z,94537.69
2017-12-15T07:58:46.570Z,94542.02
2017-12-15T08:01:15.440Z,94551.05
2017-12-15T08:03:49.664Z,94548.91
2017-12-15T08:06:17.282Z,94543.31
2017-12-15T08:08:46.805Z,94546.06
2017-12-15T08:11:15.293Z,94543.48
2017-12-15T08:13:43.958Z,94542.32
2017-12-15T08:16:12.938Z,94546.13
2017-12-15T08:18:40.496Z,94556.08
2017-12-15T08:21:07.963Z,94555.28
2017-12-15T08:23:35.510Z,94550.87
2017-12-15T08:26:03.284Z,94546.94
2017-12-15T08:28:31.856Z,94551.73
2017-12-15T08:30:59.401Z,94552.13
2017-12-15T08:33:26.885Z,94549.55
2017-12-15T08:35:54.905Z,94544.61
2017-12-15T08:38:23.225Z,94544.23
2017-12-15T08:40:52.824Z,94544.27
2017-12-15T08:43:20.993Z,94538.08
2017-12-15T08:45:50.118Z,94544.32
2017-12-15T08:48:17.992Z,94546.30
2017-12-15T08:50:46.977Z,94554.06
2017-12-15T08:53:14.578Z,94562.48
2017-12-15T08:55:42.098Z,94553.27
2017-12-15T08:58:09.647Z,94532.27
2017-12-15T09:00:37.620Z,94512.56
2017-12-15T09:03:05.700Z,94510.89
2017-12-15T09:05:33.728Z,94522.16
2017-12-15T09:08:07.392Z,94526.75
2017-12-15T09:10:36.986Z,94515.19
2017-12-15T09:13:05.091Z,94510.48
2017-12-15T09:15:32.581Z,94512.64
2017-12-15T09:18:00.108Z,94506.52
2017-12-15T09:20:28.682Z,94504.50
2017-12-15T09:22:56.510Z,94494.02
2017-12-15T09:25:25.667Z,94495.45
2017-12-15T09:27:53.287Z,94493.81
2017-12-15T09:30:21.111Z,94483.15
2017-12-15T09:32:48.923Z,94477.63
2017-12-15T09:35:16.824Z,94466.61
2017-12-15T09:37:44.301Z,94464.27
2017-12-15T09:40:12.216Z,94447.77
2017-12-15T09:42:39.830Z,94467.61
2017-12-15T09:45:07.243Z,94468.84
2017-12-15T09:47:34.730Z,94463.95
2017-12-15T09:50:02.373Z,94461.11
2017-12-15T09:52:29.966Z,94458.39
2017-12-15T09:55:00.867Z,94465.83
2017-12-15T09:57:28.576Z,94455.38
2017-12-15T09:59:58.663Z,94437.05
2017-12-15T10:02:26.440Z,94437.41
2017-12-15T10:04:54.810Z,94437.55
2017-12-15T10:07:22.363Z,94431.33
2017-12-15T10:09:50.974Z,94423.07
2017-12-15T10:12:19.538Z,94425.84
2017-12-15T10:14:47.134Z,94412.48
2017-12-15T10:17:14.783Z,94407.46
2017-12-15T10:19:42.498Z,94415.09
2017-12-15T10:22:11.177Z,94423.53
2017-12-15T10:24:38.647Z,94411.38
2017-12-15T10:27:06.348Z,94415.72
2017-12-15T10:29:33.971Z,94417.38
2017-12-15T10:32:04.500Z,94401.86
2017-12-15T10:34:31.962Z,94388.92
2017-12-15T10:36:59.505Z,94390.54
2017-12-15T10:39:27.016Z,94385.13
2017-12-15T10:41:54.917Z,94372.38
2017-12-15T10:44:23.574Z,94353.09
2017-12-15T10:46:51.103Z,94364.66
2017-12-15T10:49:18.777Z,94371.38
2017-12-15T10:51:46.335Z,94354.59
2017-12-15T10:54:14.146Z,94341.77
2017-12-15T10:56:42.169Z,94334.95
2017-12-15T10:59:10.178Z,94323.06
2017-12-15T11:01:39.666Z,94325.05
2017-12-15T11:04:07.482Z,94314.67
2017-12-15T11:06:37.232Z,94300.89
2017-12-15T11:09:04.958Z,94315.15
2017-12-15T11:11:32.442Z,94317.98
2017-12-15T11:13:59.971Z,94297.70
2017-12-15T11:16:32.413Z,94287.43
2017-12-15T11:19:00.349Z,94283.53
2017-12-15T11:21:27.902Z,94282.63
2017-12-15T11:23:55.591Z,94282.53
2017-12-15T11:26:23.441Z,94280.53
2017-12-15T11:28:53.629Z,94276.95
2017-12-15T11:31:21.710Z,94262.42
2017-12-15T11:33:50.090Z,94266.64
2017-12-15T11:36:17.650Z,94275.67
2017-12-15T11:38:45.112Z,94260.84
2017-12-15T11:41:12.908Z,94267.22
2017-12-15T11:43:40.716Z,94270.88
2017-12-15T11:46:08.279Z,94261.47
2017-12-15T11:48:54.116Z,94249.50
2017-12-15T11:51:22.026Z,94247.73
2017-12-15T11:53:49.597Z,94250.40
2017-12-15T11:56:17.174Z,94252.20
2017-12-15T11:58:44.941Z,94247.21
2017-12-15T12:01:12.573Z,94257.62
2017-12-15T12:03:40.333Z,94261.09
2017-12-15T12:06:07.898Z,94234.53
2017-12-15T12:08:35.385Z,94240.18
2017-12-15T12:11:03.046Z,94237.22
2017-12-15T12:13:30.652Z,94230.39
2017-12-15T12:15:58.134Z,94245.98
2017-12-15T12:18:25.735Z,94238.92
2017-12-15T12:20:53.613Z,94233.43
2017-12-15T12:23:21.344Z,94232.87
2017-12-15T12:25:48.866Z,94239.13
2017-12-15T12:28:16.482Z,94233.16
2017-12-15T12:30:44.115Z,94235.81
2017-12-15T12:33:11.539Z,94227.08
2017-12-15T12:35:39.018Z,94223.04
2017-12-15T12:38:06.699Z,94219.25
2017-12-15T12:40:36.958Z,94239.95
2017-12-15T12:43:04.690Z,94241.19
2017-12-15T12:45:32.234Z,94227.28
2017-12-15T12:48:00.412Z,94223.17
2017-12-15T12:50:27.969Z,94229.02
2017-12-15T12:52:55.615Z,94223.89
2017-12-15T12:55:23.102Z,94234.54
2017-12-15T12:57:50.875Z,94232.93
2017-12-15T13:00:18.657Z,94233.59
2017-12-15T13:02:46.262Z,94244.44
2017-12-15T13:05:14.208Z,94250.46
2017-12-15T13:07:42.361Z,94243.12
2017-12-15T13:10:10.359Z,94244.42
2017-12-15T13:12:40.691Z,94247.41
2017-12-15T13:15:09.606Z,94251.27
2017-12-15T13:17:38.200Z,94237.81
2017-12-15T13:20:06.351Z,94252.03
2017-12-15T13:22:34.965Z,94254.79
2017-12-15T13:25:02.848Z,94240.78
2017-12-15T13:27:31.153Z,94236.02
2017-12-15T13:30:00.539Z,94229.98
2017-12-15T13:32:30.836Z,94253.13
2017-12-15T13:34:58.515Z,94260.64
2017-12-15T13:37:29.017Z,94242.81
2017-12-15T13:39:57.862Z,94225.25
2017-12-15T13:42:29.121Z,94232.45
2017-12-15T13:44:56.909Z,94241.42
2017-12-15T13:47:26.452Z,94235.34
2017-12-15T13:49:54.469Z,94221.70
2017-12-15T13:52:31.224Z,94226.09
2017-12-15T13:54:58.903Z,94232.33
2017-12-15T13:57:26.446Z,94242.19
2017-12-15T13:59:54.854Z,94232.92
2017-12-15T14:02:23.029Z,94216.42
2017-12-15T14:04:50.767Z,94232.34
2017-12-15T14:07:19.896Z,94245.52
2017-12-15T14:09:47.582Z,94243.15
2017-12-15T14:12:15.080Z,94246.02
2017-12-15T14:14:42.655Z,94247.78
2017-12-15T14:17:10.115Z,94246.64
2017-12-15T14:19:37.571Z,94249.55
2017-12-15T14:22:05.176Z,94247.61
2017-12-15T14:24:32.902Z,94243.56
2017-12-15T14:27:00.565Z,94228.12
2017-12-15T14:29:28.125Z,94240.33
2017-12-15T14:31:57.357Z,94235.86
2017-12-15T14:34:26.225Z,94223.46
2017-12-15T14:36:54.415Z,94244.00
2017-12-15T14:39:22.358Z,94247.33
2017-12-15T14:41:51.434Z,94258.92
2017-12-15T14:44:19.481Z,94253.98
2017-12-15T14:46:48.008Z,94255.41
2017-12-15T14:49:17.716Z,94250.56
2017-12-15T14:51:45.264Z,94246.70
2017-12-15T14:54:15.579Z,94255.70
2017-12-15T14:56:43.993Z,94254.73
2017-12-15T14:59:11.741Z,94254.16
2017-12-15T15:01:39.151Z,94254.22
2017-12-15T15:04:07.754Z,94253.69
2017-12-15T15:06:35.337Z,94235.73
2017-12-15T15:09:03.196Z,94255.42
2017-12-15T15:11:30.851Z,94244.09
2017-12-15T15:13:58.286Z,94243.72
2017-12-15T15:16:25.949Z,94272.41
2017-12-15T15:18:53.457Z,94249.09
2017-12-15T15:21:21.542Z,94247.14
2017-12-15T15:23:49.441Z,94238.95
2017-12-15T15:26:17.832Z,94214.63
2017-12-15T15:28:45.538Z,94188.30
2017-12-15T15:31:13.621Z,94211.72
2017-12-15T15:33:42.317Z,94213.00
2017-12-15T15:36:10.195Z,94218.14
2017-12-15T15:38:37.707Z,94213.48
2017-12-15T15:41:05.367Z,94209.87
2017-12-15T15:43:32.930Z,94214.70
2017-12-15T15:46:00.554Z,94206.83
2017-12-15T15:48:30.542Z,94191.97
2017-12-15T15:50:57.934Z,94189.91
2017-12-15T15:53:25.508Z,94194.48
2017-12-15T15:55:52.988Z,94196.33
2017-12-15T15:58:20.810Z,94193.30
2017-12-15T16:00:48.459Z,94221.23
2017-12-15T16:03:16.220Z,94187.50
2017-12-15T16:05:44.090Z,94180.42
2017-12-15T16:08:11.562Z,94191.06
2017-12-15T16:10:39.085Z,94217.41
2017-12-15T16:13:06.500Z,94206.06
2017-12-15T16:15:34.183Z,94172.88
2017-12-15T16:18:01.737Z,94192.63
2017-12-15T16:20:30.184Z,94202.13
2017-12-15T16:22:58.580Z,94193.42
2017-12-15T16:25:26.073Z,94176.65
2017-12-15T16:27:53.499Z,94166.20
2017-12-15T16:30:21.329Z,94154.59
2017-12-15T16:32:49.197Z,94169.28
2017-12-15T16:35:16.660Z,94178.52
2017-12-15T16:37:44.105Z,94179.39
2017-12-15T16:40:11.636Z,94171.14
2017-12-15T16:42:39.050Z,94191.98
2017-12-15T16:45:06.450Z,94190.34
2017-12-15T16:47:33.968Z,94204.56
2017-12-15T16:50:01.500Z,94181.17
2017-12-15T16:52:28.924Z,94143.44
2017-12-15T16:54:56.543Z,94160.72
2017-12-15T16:57:24.170Z,94160.41
2017-12-15T16:59:51.847Z,94162.45
2017-12-15T17:02:19.452Z,94154.86
2017-12-15T17:04:46.877Z,94165.34
2017-12-15T17:07:14.353Z,94162.31
2017-12-15T17:09:41.802Z,94142.80
2017-12-15T17:12:09.197Z,94138.59
2017-12-15T17:14:36.605Z,94131.22
2017-12-15T17:17:04.182Z,94126.05
2017-12-15T17:19:31.598Z,94133.65
2017-12-15T17:21:58.994Z,94138.02
2017-12-15T17:24:26.490Z,94137.34
2017-12-15T17:26:54.048Z,94142.84
2017-12-15T17:29:21.479Z,94121.92
2017-12-15T17:31:48.910Z,94121.44
2017-12-15T17:34:16.319Z,94118.83
2017-12-15T17:36:43.735Z,94110.58
2017-12-15T17:39:11.146Z,94109.80
2017-12-15T17:41:38.556Z,94120.44
2017-12-15T17:44:06.156Z,94114.61
2017-12-15T17:46:33.593Z,94103.11
2017-12-15T17:49:01.036Z,94104.31
2017-12-15T17:51:28.419Z,94093.33
2017-12-15T17:53:55.808Z,94100.55
2017-12-15T17:56:23.278Z,94092.20
2017-12-15T17:58:50.678Z,94086.94
2017-12-15T18:01:18.093Z,94082.38
2017-12-15T18:03:45.639Z,94071.33
2017-12-15T18:06:13.070Z,94076.73
2017-12-15T18:08:40.549Z,94089.56
2017-12-15T18:11:08.004Z,94082.32
2017-12-15T18:16:08.680Z,94056.13
2017-12-15T18:18:36.291Z,94066.53
2017-12-15T18:21:03.692Z,94062.97
2017-12-15T18:23:31.082Z,94070.52
2017-12-15T18:25:58.505Z,94018.23
2017-12-15T18:28:25.920Z,94048.88
2017-12-15T18:30:53.299Z,94045.88
2017-12-15T18:33:20.762Z,94043.22
2017-12-15T18:35:48.326Z,94017.66
2017-12-15T18:38:15.746Z,94034.17
2017-12-15T18:40:43.115Z,94032.84
2017-12-15T18:43:10.504Z,94043.29
2017-12-15T18:45:37.918Z,94024.13
2017-12-15T18:48:05.401Z,94030.77
2017-12-15T18:50:32.784Z,94005.20
2017-12-15T18:53:00.224Z,94003.48
2017-12-15T18:55:27.606Z,93994.84
2017-12-15T18:57:55.044Z,93987.08
2017-12-15T19:00:22.467Z,93980.86
2017-12-15T19:02:49.883Z,93970.61
2017-12-15T19:05:17.239Z,93965.95
2017-12-15T19:07:44.677Z,93948.31
2017-12-15T19:10:12.094Z,93941.50
2017-12-15T19:12:39.510Z,93940.12
2017-12-15T19:15:06.956Z,93932.52
2017-12-15T19:17:34.374Z,93932.75
2017-12-15T19:20:01.791Z,93951.69
2017-12-15T19:22:29.162Z,93964.02
2017-12-15T19:24:56.543Z,93947.94
2017-12-15T19:27:23.959Z,93957.98
2017-12-15T19:29:51.333Z,93935.45
2017-12-15T19:32:18.750Z,93913.16
2017-12-15T19:34:46.186Z,93947.46
2017-12-15T19:37:13.580Z,93926.06
2017-12-15T19:39:41.002Z,93898.43
2017-12-15T19:42:08.425Z,93911.89
2017-12-15T19:44:35.812Z,93903.97
2017-12-15T19:47:03.237Z,93917.83
2017-12-15T19:49:30.624Z,93912.14
2017-12-15T19:51:58.152Z,93941.91
2017-12-15T19:54:25.563Z,93912.74
2017-12-15T19:56:52.964Z,93903.64
2017-12-15T19:59:20.422Z,93920.38
2017-12-15T20:01:47.851Z,93893.30
2017-12-15T20:04:15.394Z,93923.80
2017-12-15T20:06:42.870Z,93910.23
2017-12-15T20:09:10.375Z,93894.73
2017-12-15T20:11:37.873Z,93936.27
2017-12-15T20:14:05.292Z,93901.13
2017-12-15T20:16:32.762Z,93879.46
2017-12-15T20:19:00.141Z,93913.41
2017-12-15T20:21:27.542Z,93917.44
2017-12-15T20:23:55.046Z,93921.84
2017-12-15T20:26:22.413Z,93927.43
2017-12-15T20:28:49.857Z,93886.08
2017-12-15T20:31:17.214Z,93927.13
2017-12-15T20:33:44.670Z,93923.99
2017-12-15T20:36:12.043Z,93909.49
2017-12-15T20:38:39.471Z,93905.45
2017-12-15T20:41:06.867Z,93914.52
2017-12-15T20:43:34.380Z,93912.38
2017-12-15T20:46:01.759Z,93924.21
2017-12-15T20:48:29.126Z,93932.86
2017-12-15T20:50:56.562Z,93928.02
2017-12-15T20:53:23.939Z,93927.88
2017-12-15T20:55:51.327Z,93912.84
2017-12-15T20:58:18.846Z,93940.38
2017-12-15T21:00:46.246Z,93938.70
2017-12-15T21:03:13.623Z,93932.53
2017-12-15T21:05:41.090Z,93908.33
2017-12-15T21:08:08.543Z,93919.06
2017-12-15T21:10:35.903Z,93917.82
2017-12-15T21:13:03.392Z,93910.73
2017-12-15T21:15:30.829Z,93912.71
2017-12-15T21:17:58.343Z,93922.64
2017-12-15T21:20:25.812Z,93933.40
2017-12-15T21:22:53.223Z,93940.08
2017-12-15T21:25:20.604Z,93939.62
2017-12-15T21:27:48.031Z,93944.50
2017-12-15T21:30:15.468Z,93931.42
2017-12-15T21:32:42.879Z,93936.66
2017-12-15T21:35:10.332Z,93908.89
2017-12-15T21:37:37.756Z,93938.93
2017-12-15T21:40:05.243Z,93918.84
2017-12-15T21:42:32.632Z,93903.36
2017-12-15T21:45:00.574Z,93927.64
2017-12-15T21:47:27.988Z,93927.31
2017-12-15T21:49:55.521Z,93897.95
2017-12-15T21:52:22.961Z,93878.69
2017-12-15T21:54:51.763Z,93893.95
2017-12-15T21:57:19.252Z,93894.24
2017-12-15T21:59:46.656Z,93892.02
2017-12-15T22:02:14.144Z,93868.92
2017-12-15T22:04:41.496Z,93882.67
2017-12-15T22:07:08.847Z,93887.70
2017-12-15T22:09:36.278Z,93882.07
2017-12-15T22:12:03.695Z,93877.41
2017-12-15T22:14:31.158Z,93889.72
2017-12-15T22:16:58.547Z,93879.73
2017-12-15T22:19:25.918Z,93876.51
2017-12-15T22:21:53.335Z,93883.94
2017-12-15T22:24:20.887Z,93897.84
2017-12-15T22:26:48.421Z,93883.49
2017-12-15T22:29:15.823Z,93877.92
2017-12-15T22:31:43.222Z,93871.89
2017-12-15T22:34:10.613Z,93874.65
2017-12-15T22:36:38.031Z,93873.80
2017-12-15T22:39:05.450Z,93862.77
2017-12-15T22:41:32.885Z,93860.72
2017-12-15T22:44:00.414Z,93861.02
2017-12-15T22:46:27.799Z,93861.02
2017-12-15T22:48:55.216Z,93842.83
2017-12-15T22:51:22.687Z,93837.11
2017-12-15T22:53:50.195Z,93830.91
2017-12-15T22:56:17.691Z,93809.97
2017-12-15T22:58:45.114Z,93801.65
2017-12-15T23:01:12.486Z,93798.09
2017-12-15T23:03:39.917Z,93784.27
2017-12-15T23:06:07.283Z,93775.95
2017-12-15T23:08:34.855Z,93765.92
2017-12-15T23:11:02.270Z,93763.17
2017-12-15T23:13:29.646Z,93756.50
2017-12-15T23:15:57.074Z,93743.67
2017-12-15T23:18:24.707Z,93751.63
2017-12-15T23:20:52.112Z,93759.89
2017-12-15T23:23:19.479Z,93756.71
2017-12-15T23:25:46.906Z,93752.51
2017-12-15T23:28:14.338Z,93736.78
2017-12-15T23:30:41.759Z,93708.59
2017-12-15T23:33:09.136Z,93705.69
2017-12-15T23:35:36.612Z,93712.98
2017-12-15T23:38:04.010Z,93699.26
2017-12-15T23:40:31.442Z,93699.48
2017-12-15T23:42:59.026Z,93705.92
2017-12-15T23:45:26.426Z,93683.06
2017-12-15T23:47:53.890Z,93648.45
2017-12-15T23:50:21.380Z,93663.98
2017-12-15T23:52:48.782Z,93651.96
2017-12-15T23:55:16.207Z,93671.40
2017-12-15T23:57:43.560Z,93684.23
